createdAt,value
2022-12-31T00:01:28.207Z,10.84
2022-12-31T00:03:55.318Z,10.81
2022-12-31T00:06:30.594Z,10.76
2022-12-31T00:08:59.171Z,10.80
2022-12-31T00:11:27.032Z,10.66
2022-12-31T00:13:53.838Z,10.70
2022-12-31T00:16:33.328Z,10.65
2022-12-31T00:19:00.534Z,10.67
2022-12-31T00:21:32.923Z,10.57
2022-12-31T00:23:59.886Z,10.61
2022-12-31T00:26:31.015Z,10.67
2022-12-31T00:28:59.021Z,10.67
2022-12-31T00:31:33.878Z,10.58
2022-12-31T00:34:00.665Z,10.54
2022-12-31T00:36:30.161Z,10.54
2022-12-31T00:38:58.287Z,10.62
2022-12-31T00:41:26.072Z,10.75
2022-12-31T00:43:53.021Z,10.57
2022-12-31T00:46:20.153Z,10.56
2022-12-31T00:48:46.987Z,10.58
2022-12-31T00:51:16.310Z,10.77
2022-12-31T00:53:43.512Z,10.76
2022-12-31T00:56:13.114Z,10.76
2022-12-31T00:58:39.989Z,10.82
2022-12-31T01:01:18.222Z,10.83
2022-12-31T01:03:45.721Z,10.82
2022-12-31T01:06:12.786Z,10.92
2022-12-31T01:08:39.295Z,10.85
2022-12-31T01:11:24.599Z,10.95
2022-12-31T01:14:04.236Z,10.84
2022-12-31T01:16:42.343Z,10.78
2022-12-31T01:19:15.249Z,10.87
2022-12-31T01:21:43.034Z,10.89
2022-12-31T01:24:11.553Z,10.81
2022-12-31T01:26:38.690Z,10.75
2022-12-31T01:29:06.689Z,10.76
2022-12-31T01:31:34.371Z,10.89
2022-12-31T01:34:01.363Z,10.94
2022-12-31T01:36:29.920Z,10.91
2022-12-31T01:38:58.577Z,10.86
2022-12-31T01:41:29.974Z,10.87
2022-12-31T01:44:01.840Z,11.06
2022-12-31T01:46:39.821Z,11.16
2022-12-31T01:49:23.984Z,11.16
2022-12-31T01:52:02.191Z,11.29
2022-12-31T01:54:32.389Z,11.22
2022-12-31T01:56:59.266Z,11.38
2022-12-31T01:59:29.148Z,11.42
2022-12-31T02:01:56.204Z,11.41
2022-12-31T02:04:24.873Z,11.34
2022-12-31T02:06:56.065Z,11.35
2022-12-31T02:09:22.868Z,11.46
2022-12-31T02:11:49.389Z,11.52
2022-12-31T02:14:21.058Z,11.59
2022-12-31T02:16:56.735Z,11.53
2022-12-31T02:19:47.695Z,11.50
2022-12-31T02:22:56.321Z,11.42
2022-12-31T02:25:37.936Z,11.42
2022-12-31T02:28:19.772Z,11.41
2022-12-31T02:30:51.655Z,11.41
2022-12-31T02:33:25.872Z,11.46
2022-12-31T02:36:06.379Z,11.54
2022-12-31T02:38:38.439Z,11.55
2022-12-31T02:41:05.013Z,11.51
2022-12-31T02:43:31.524Z,11.52
2022-12-31T02:46:12.113Z,11.55
2022-12-31T02:49:16.067Z,11.62
2022-12-31T02:52:10.040Z,11.53
2022-12-31T02:55:13.993Z,11.55
2022-12-31T02:57:46.908Z,11.58
2022-12-31T03:00:35.069Z,11.63
2022-12-31T03:03:03.660Z,11.73
2022-12-31T03:05:37.441Z,11.72
2022-12-31T03:08:04.025Z,11.77
2022-12-31T03:10:30.553Z,11.73
2022-12-31T03:12:57.304Z,11.75
2022-12-31T03:15:27.147Z,11.74
2022-12-31T03:18:02.550Z,11.73
2022-12-31T03:20:52.249Z,11.75
2022-12-31T03:24:06.936Z,11.65
2022-12-31T03:26:33.436Z,11.46
2022-12-31T03:28:59.927Z,11.50
2022-12-31T03:31:27.959Z,11.47
2022-12-31T03:33:54.452Z,11.38
2022-12-31T03:36:20.969Z,11.35
2022-12-31T03:38:51.231Z,11.34
2022-12-31T03:41:19.315Z,11.29
2022-12-31T03:43:45.867Z,11.19
2022-12-31T03:46:12.408Z,11.20
2022-12-31T03:48:39.926Z,11.20
2022-12-31T03:51:06.417Z,11.26
2022-12-31T03:53:34.752Z,11.25
2022-12-31T03:56:01.266Z,11.25
2022-12-31T03:58:27.785Z,11.35
2022-12-31T04:00:54.343Z,11.32
2022-12-31T04:03:20.946Z,11.33
2022-12-31T04:05:55.611Z,11.32
2022-12-31T04:08:22.196Z,11.41
2022-12-31T04:10:49.274Z,11.47
2022-12-31T04:13:15.789Z,11.55
2022-12-31T04:15:42.300Z,11.54
2022-12-31T04:18:08.824Z,11.50
2022-12-31T04:20:35.327Z,11.50
2022-12-31T04:23:01.831Z,11.51
2022-12-31T04:25:28.331Z,11.49
2022-12-31T04:27:54.872Z,11.42
2022-12-31T04:30:21.417Z,11.43
2022-12-31T04:32:47.914Z,11.51
2022-12-31T04:35:14.437Z,11.52
2022-12-31T04:37:40.940Z,11.56
2022-12-31T04:40:08.397Z,11.44
2022-12-31T04:42:36.253Z,11.51
2022-12-31T04:45:03.994Z,11.58
2022-12-31T04:47:30.607Z,11.55
2022-12-31T04:49:57.101Z,11.58
2022-12-31T04:52:23.664Z,11.55
2022-12-31T04:54:50.176Z,11.59
2022-12-31T04:57:16.705Z,11.62
2022-12-31T04:59:43.240Z,11.54
2022-12-31T05:02:09.954Z,11.47
2022-12-31T05:04:36.614Z,11.61
2022-12-31T05:07:03.180Z,11.66
2022-12-31T05:09:30.962Z,11.66
2022-12-31T05:11:57.629Z,11.72
2022-12-31T05:14:24.380Z,11.76
2022-12-31T05:16:51.116Z,11.78
2022-12-31T05:19:17.735Z,11.74
2022-12-31T05:22:04.276Z,11.67
2022-12-31T05:24:31.533Z,11.70
2022-12-31T05:26:58.043Z,11.77
2022-12-31T05:29:24.556Z,11.80
2022-12-31T05:31:52.234Z,12.02
2022-12-31T05:34:18.806Z,11.90
2022-12-31T05:36:45.327Z,11.89
2022-12-31T05:39:12.045Z,11.97
2022-12-31T05:41:38.547Z,11.91
2022-12-31T05:44:05.059Z,11.88
2022-12-31T05:46:31.599Z,12.03
2022-12-31T05:48:58.106Z,12.04
2022-12-31T05:51:24.605Z,12.03
2022-12-31T05:53:51.093Z,11.97
2022-12-31T05:56:17.829Z,11.89
2022-12-31T05:58:44.347Z,11.93
2022-12-31T06:01:10.867Z,12.11
2022-12-31T06:03:37.388Z,12.12
2022-12-31T06:06:05.310Z,12.00
2022-12-31T06:08:31.853Z,12.02
2022-12-31T06:10:58.472Z,12.13
2022-12-31T06:13:25.002Z,12.25
2022-12-31T06:15:51.567Z,12.22
2022-12-31T06:18:18.069Z,12.06
2022-12-31T06:20:44.577Z,12.24
2022-12-31T06:23:11.356Z,12.16
2022-12-31T06:25:37.874Z,12.12
2022-12-31T06:28:05.492Z,11.99
2022-12-31T06:30:32.487Z,12.01
2022-12-31T06:32:58.979Z,11.99
2022-12-31T06:35:25.518Z,12.01
2022-12-31T06:37:52.252Z,12.05
2022-12-31T06:40:18.746Z,12.11
2022-12-31T06:42:45.257Z,11.97
2022-12-31T06:45:11.790Z,11.94
2022-12-31T06:47:38.377Z,11.84
2022-12-31T06:50:05.384Z,11.77
2022-12-31T06:52:31.866Z,11.88
2022-12-31T06:54:58.971Z,11.88
2022-12-31T06:57:25.767Z,11.82
2022-12-31T06:59:52.603Z,11.96
2022-12-31T07:02:44.853Z,12.09
2022-12-31T07:05:30.010Z,12.00
2022-12-31T07:08:21.664Z,11.86
2022-12-31T07:11:05.963Z,11.66
2022-12-31T07:13:57.331Z,11.77
2022-12-31T07:16:40.335Z,11.67
2022-12-31T07:19:09.808Z,11.70
2022-12-31T07:21:41.125Z,11.79
2022-12-31T07:24:10.057Z,11.73
2022-12-31T07:27:06.391Z,11.67
2022-12-31T07:30:03.919Z,11.65
2022-12-31T07:33:03.994Z,11.67
2022-12-31T07:35:48.559Z,11.72
2022-12-31T07:38:32.790Z,11.95
2022-12-31T07:41:09.353Z,12.06
2022-12-31T07:43:42.800Z,12.19
2022-12-31T07:46:35.778Z,12.37
2022-12-31T07:49:03.867Z,12.41
2022-12-31T07:51:30.498Z,12.36
2022-12-31T07:53:57.027Z,12.55
2022-12-31T07:56:23.585Z,12.59
2022-12-31T07:59:05.219Z,12.57
2022-12-31T08:01:40.771Z,12.50
2022-12-31T08:04:18.083Z,12.50
2022-12-31T08:06:59.332Z,12.62
2022-12-31T08:09:36.517Z,12.75
2022-12-31T08:12:03.916Z,12.82
2022-12-31T08:14:30.993Z,12.99
2022-12-31T08:16:58.038Z,13.12
2022-12-31T08:19:25.837Z,13.16
2022-12-31T08:22:25.776Z,13.28
2022-12-31T08:25:11.142Z,13.42
2022-12-31T08:27:43.235Z,13.45
2022-12-31T08:30:19.027Z,13.38
2022-12-31T08:33:11.218Z,13.45
2022-12-31T08:35:59.017Z,13.55
2022-12-31T08:38:43.280Z,13.39
2022-12-31T08:41:28.047Z,13.35
2022-12-31T08:44:10.351Z,13.42
2022-12-31T08:46:59.739Z,13.34
2022-12-31T08:49:28.049Z,13.48
2022-12-31T08:51:54.904Z,13.50
2022-12-31T08:54:21.686Z,13.51
2022-12-31T08:56:53.384Z,13.61
2022-12-31T08:59:25.694Z,13.74
2022-12-31T09:02:07.501Z,13.74
2022-12-31T09:05:01.831Z,13.96
2022-12-31T09:07:40.345Z,14.10
2022-12-31T09:10:20.676Z,14.23
2022-12-31T09:12:54.758Z,14.26
2022-12-31T09:15:27.069Z,14.27
2022-12-31T09:17:53.808Z,14.37
2022-12-31T09:20:41.807Z,14.47
2022-12-31T09:23:10.276Z,14.58
2022-12-31T09:25:45.426Z,14.52
2022-12-31T09:28:17.858Z,14.50
2022-12-31T09:31:14.740Z,14.49
2022-12-31T09:34:06.712Z,14.58
2022-12-31T09:36:48.143Z,14.77
2022-12-31T09:39:43.114Z,14.91
2022-12-31T09:42:26.611Z,14.95
2022-12-31T09:45:09.545Z,14.97
2022-12-31T09:48:11.193Z,14.98
2022-12-31T09:50:52.644Z,14.91
2022-12-31T09:53:24.994Z,14.88
2022-12-31T09:56:10.145Z,14.72
2022-12-31T09:58:46.533Z,14.76
2022-12-31T10:01:19.098Z,14.69
2022-12-31T10:04:30.204Z,14.81
2022-12-31T10:07:15.320Z,14.92
2022-12-31T10:10:09.270Z,15.05
2022-12-31T10:12:59.133Z,15.11
2022-12-31T10:15:40.253Z,15.36
2022-12-31T10:18:23.215Z,15.58
2022-12-31T10:21:04.271Z,15.57
2022-12-31T10:24:10.076Z,15.67
2022-12-31T10:27:05.008Z,15.60
2022-12-31T10:29:59.181Z,15.46
2022-12-31T10:32:34.795Z,15.47
2022-12-31T10:35:18.354Z,15.63
2022-12-31T10:38:06.447Z,15.84
2022-12-31T10:40:54.455Z,15.92
2022-12-31T10:43:55.433Z,15.94
2022-12-31T10:46:27.864Z,15.94
2022-12-31T10:49:22.214Z,15.93
2022-12-31T10:52:10.397Z,16.04
2022-12-31T10:55:33.702Z,16.06
2022-12-31T10:58:15.197Z,16.12
2022-12-31T11:00:53.420Z,16.04
2022-12-31T11:04:13.477Z,16.13
2022-12-31T11:07:21.435Z,16.22
2022-12-31T11:10:09.607Z,16.04
2022-12-31T11:12:46.935Z,16.09
2022-12-31T11:15:22.441Z,16.20
2022-12-31T11:18:12.997Z,16.26
2022-12-31T11:21:00.241Z,16.22
2022-12-31T11:23:36.208Z,16.27
2022-12-31T11:26:21.804Z,16.40
2022-12-31T11:28:57.286Z,16.32
2022-12-31T11:31:39.063Z,16.36
2022-12-31T11:34:27.438Z,16.33
2022-12-31T11:37:18.163Z,16.29
2022-12-31T11:39:56.771Z,16.31
2022-12-31T11:42:45.975Z,16.29
2022-12-31T11:45:18.333Z,16.31
2022-12-31T11:48:29.250Z,16.41
2022-12-31T11:51:06.156Z,16.34
2022-12-31T11:53:46.302Z,16.36
2022-12-31T11:56:18.397Z,16.30
2022-12-31T11:58:56.052Z,16.33
2022-12-31T12:01:52.149Z,16.47
2022-12-31T12:04:18.691Z,16.46
2022-12-31T12:06:46.005Z,16.37
2022-12-31T12:09:22.026Z,16.32
2022-12-31T12:11:59.365Z,16.41
2022-12-31T12:14:40.891Z,16.38
2022-12-31T12:17:08.474Z,16.35
2022-12-31T12:19:41.893Z,16.24
2022-12-31T12:22:22.249Z,16.14
2022-12-31T12:25:04.634Z,16.17
2022-12-31T12:27:34.532Z,16.14
2022-12-31T12:30:30.323Z,16.12
2022-12-31T12:33:00.255Z,16.10
2022-12-31T12:35:32.531Z,16.21
2022-12-31T12:38:07.726Z,16.35
2022-12-31T12:40:35.285Z,16.31
2022-12-31T12:43:02.950Z,16.32
2022-12-31T12:45:41.651Z,16.43
2022-12-31T12:48:18.923Z,16.39
2022-12-31T12:50:48.910Z,16.32
2022-12-31T12:53:37.173Z,16.25
2022-12-31T12:56:18.817Z,16.14
2022-12-31T12:59:12.195Z,16.11
2022-12-31T13:01:42.623Z,16.04
2022-12-31T13:04:34.104Z,16.05
2022-12-31T13:07:19.353Z,15.93
2022-12-31T13:09:57.930Z,16.09
2022-12-31T13:15:46.234Z,16.04
2022-12-31T13:18:36.867Z,16.01
2022-12-31T13:21:09.862Z,15.92
2022-12-31T13:23:43.481Z,15.95
2022-12-31T13:26:28.267Z,15.85
2022-12-31T13:28:56.538Z,15.77
2022-12-31T13:31:30.174Z,15.72
2022-12-31T13:34:03.100Z,15.60
2022-12-31T13:36:32.715Z,15.57
2022-12-31T13:39:02.600Z,15.57
2022-12-31T13:42:06.707Z,15.52
2022-12-31T13:44:39.546Z,15.40
2022-12-31T13:47:13.667Z,15.26
2022-12-31T13:49:44.332Z,15.23
2022-12-31T13:52:42.727Z,15.23
2022-12-31T13:55:32.139Z,15.09
2022-12-31T13:58:17.744Z,15.07
2022-12-31T14:00:50.199Z,15.05
2022-12-31T14:03:27.333Z,14.97
2022-12-31T14:06:08.212Z,14.77
2022-12-31T14:08:34.748Z,14.63
2022-12-31T14:11:19.975Z,14.58
2022-12-31T14:14:15.167Z,14.60
2022-12-31T14:16:49.295Z,14.47
2022-12-31T14:19:21.365Z,14.37
2022-12-31T14:22:15.108Z,14.32
2022-12-31T14:24:50.568Z,14.16
2022-12-31T14:27:29.726Z,14.13
2022-12-31T14:30:01.576Z,14.05
2022-12-31T14:32:55.060Z,13.94
2022-12-31T14:35:46.899Z,13.76
2022-12-31T14:38:35.372Z,13.69
2022-12-31T14:41:53.244Z,13.63
2022-12-31T14:44:40.982Z,13.53
2022-12-31T14:47:21.022Z,13.45
2022-12-31T14:50:11.527Z,13.37
2022-12-31T14:53:04.369Z,13.20
2022-12-31T14:55:34.002Z,13.09
2022-12-31T14:58:27.313Z,13.07
2022-12-31T15:00:55.888Z,13.09
2022-12-31T15:03:31.516Z,12.99
2022-12-31T15:06:22.813Z,12.95
2022-12-31T15:09:08.702Z,12.82
2022-12-31T15:12:06.374Z,12.65
2022-12-31T15:14:37.383Z,12.58
2022-12-31T15:17:26.622Z,12.49
2022-12-31T15:20:31.591Z,12.39
2022-12-31T15:22:58.731Z,12.28
2022-12-31T15:25:40.829Z,12.15
2022-12-31T15:28:29.166Z,11.99
2022-12-31T15:31:03.541Z,11.94
2022-12-31T15:33:53.401Z,11.82
2022-12-31T15:36:22.764Z,11.76
2022-12-31T15:38:50.460Z,11.69
2022-12-31T15:41:28.093Z,11.60
2022-12-31T15:43:57.666Z,11.47
2022-12-31T15:46:29.344Z,11.35
2022-12-31T15:49:05.153Z,11.42
2022-12-31T15:51:46.861Z,11.45
2022-12-31T15:54:24.237Z,11.38
2022-12-31T15:56:53.140Z,11.30
2022-12-31T15:59:21.797Z,11.24
2022-12-31T16:01:48.764Z,11.29
2022-12-31T16:04:27.670Z,11.29
2022-12-31T16:06:57.724Z,11.25
2022-12-31T16:09:31.264Z,11.34
2022-12-31T16:11:59.399Z,11.35
2022-12-31T16:14:35.207Z,11.33
2022-12-31T16:17:02.390Z,11.46
2022-12-31T16:19:41.950Z,11.47
2022-12-31T16:22:14.576Z,11.47
2022-12-31T16:25:02.828Z,11.63
2022-12-31T16:27:29.742Z,11.63
2022-12-31T16:30:08.421Z,11.87
2022-12-31T16:32:37.830Z,12.37
2022-12-31T16:35:23.615Z,12.67
2022-12-31T16:38:14.158Z,13.12
2022-12-31T16:40:43.601Z,13.20
2022-12-31T16:43:26.036Z,12.97
2022-12-31T16:45:54.994Z,12.81
2022-12-31T16:48:21.541Z,12.76
2022-12-31T16:50:52.719Z,12.79
2022-12-31T16:53:26.077Z,12.70
2022-12-31T16:56:01.531Z,12.67
2022-12-31T16:58:34.725Z,12.75
2022-12-31T17:01:16.422Z,12.75
2022-12-31T17:03:47.361Z,12.67
2022-12-31T17:06:18.874Z,12.69
2022-12-31T17:09:04.928Z,12.70
2022-12-31T17:11:33.809Z,12.69
2022-12-31T17:14:06.760Z,12.73
2022-12-31T17:17:04.973Z,12.68
2022-12-31T17:19:33.653Z,12.74
2022-12-31T17:22:00.967Z,12.79
2022-12-31T17:24:27.805Z,12.74
2022-12-31T17:26:54.419Z,12.73
2022-12-31T17:29:26.444Z,12.80
2022-12-31T17:32:00.451Z,12.73
2022-12-31T17:34:31.651Z,12.74
2022-12-31T17:37:00.221Z,12.69
2022-12-31T17:39:38.646Z,12.85
2022-12-31T17:42:05.277Z,13.10
2022-12-31T17:44:34.093Z,13.19
2022-12-31T17:47:02.653Z,13.07
2022-12-31T17:49:30.940Z,12.89
2022-12-31T17:51:57.640Z,12.86
2022-12-31T17:54:24.179Z,12.81
2022-12-31T17:56:52.607Z,12.94
2022-12-31T17:59:23.104Z,13.01
2022-12-31T18:01:49.921Z,13.07
2022-12-31T18:04:18.413Z,12.95
2022-12-31T18:06:45.325Z,12.81
2022-12-31T18:09:11.919Z,12.80
2022-12-31T18:11:40.134Z,12.78
2022-12-31T18:14:07.194Z,12.72
2022-12-31T18:16:34.183Z,12.64
2022-12-31T18:19:01.215Z,12.58
2022-12-31T18:21:32.398Z,12.53
2022-12-31T18:26:27.349Z,12.87
2022-12-31T18:28:53.954Z,13.00
2022-12-31T18:31:27.194Z,13.16
2022-12-31T18:33:55.945Z,13.22
2022-12-31T18:36:23.736Z,13.13
2022-12-31T18:38:50.507Z,12.96
2022-12-31T18:41:20.823Z,12.93
2022-12-31T18:43:47.766Z,13.03
2022-12-31T18:46:17.854Z,13.09
2022-12-31T18:48:44.464Z,13.02
2022-12-31T18:51:17.275Z,12.93
2022-12-31T18:53:44.517Z,13.07
2022-12-31T18:56:18.061Z,13.31
2022-12-31T18:58:45.420Z,13.27
2022-12-31T19:01:29.858Z,13.27
2022-12-31T19:03:58.932Z,13.20
2022-12-31T19:06:26.551Z,13.14
2022-12-31T19:08:53.102Z,13.17
2022-12-31T19:11:20.116Z,13.18
2022-12-31T19:13:47.487Z,13.16
2022-12-31T19:16:14.251Z,13.08
2022-12-31T19:18:41.786Z,13.00
2022-12-31T19:21:17.267Z,13.00
2022-12-31T19:23:44.540Z,12.97
2022-12-31T19:26:20.154Z,12.98
2022-12-31T19:28:47.494Z,13.03
2022-12-31T19:31:14.601Z,13.04
2022-12-31T19:33:41.318Z,12.98
2022-12-31T19:36:14.685Z,12.86
2022-12-31T19:38:41.199Z,12.78
2022-12-31T19:41:15.013Z,12.72
2022-12-31T19:43:41.527Z,12.69
2022-12-31T19:46:12.617Z,12.71
2022-12-31T19:48:39.198Z,12.63
2022-12-31T19:51:09.907Z,12.66
2022-12-31T19:53:36.400Z,12.59
2022-12-31T19:56:03.407Z,12.65
2022-12-31T19:58:29.932Z,12.59
2022-12-31T20:01:02.439Z,12.52
2022-12-31T20:03:31.048Z,12.39
2022-12-31T20:06:09.511Z,12.47
2022-12-31T20:08:37.967Z,12.71
2022-12-31T20:11:11.882Z,12.85
2022-12-31T20:13:39.304Z,12.96
2022-12-31T20:16:07.924Z,12.98
2022-12-31T20:18:37.343Z,12.91
2022-12-31T20:21:04.620Z,12.79
2022-12-31T20:23:34.971Z,12.65
2022-12-31T20:26:02.030Z,12.78
2022-12-31T20:28:29.712Z,12.85
2022-12-31T20:30:56.329Z,12.84
2022-12-31T20:33:23.178Z,12.75
2022-12-31T20:35:49.877Z,12.74
2022-12-31T20:38:16.511Z,12.63
2022-12-31T20:40:46.639Z,12.57
2022-12-31T20:43:14.024Z,12.60
2022-12-31T20:45:41.728Z,12.49
2022-12-31T20:48:08.308Z,12.54
2022-12-31T20:50:34.877Z,12.67
2022-12-31T20:53:01.948Z,12.61
2022-12-31T20:55:30.650Z,12.61
2022-12-31T20:57:58.506Z,12.46
2022-12-31T21:00:25.007Z,12.37
2022-12-31T21:02:57.899Z,12.25
2022-12-31T21:05:31.026Z,12.19
2022-12-31T21:07:57.676Z,12.13
2022-12-31T21:10:24.193Z,12.00
2022-12-31T21:12:53.532Z,12.02
2022-12-31T21:15:21.407Z,11.98
2022-12-31T21:17:48.029Z,11.90
2022-12-31T21:20:14.537Z,11.89
2022-12-31T21:22:41.129Z,11.87
2022-12-31T21:25:07.861Z,11.83
2022-12-31T21:27:35.564Z,11.74
2022-12-31T21:30:18.238Z,11.78
2022-12-31T21:32:45.752Z,11.88
2022-12-31T21:35:42.240Z,11.80
2022-12-31T21:38:03.374Z,11.74
2022-12-31T21:40:30.866Z,11.82
2022-12-31T21:42:57.842Z,11.88
2022-12-31T21:45:24.443Z,12.00
2022-12-31T21:48:09.759Z,12.11
2022-12-31T21:50:36.267Z,12.27
2022-12-31T21:53:06.123Z,12.25
2022-12-31T21:55:51.339Z,12.23
2022-12-31T21:58:27.055Z,12.34
2022-12-31T22:01:13.681Z,12.37
2022-12-31T22:03:40.710Z,12.29
2022-12-31T22:06:13.417Z,12.28
2022-12-31T22:08:45.084Z,12.39
2022-12-31T22:11:12.928Z,12.70
2022-12-31T22:13:40.123Z,12.72
2022-12-31T22:16:07.750Z,12.91
2022-12-31T22:18:38.716Z,12.93
2022-12-31T22:21:18.242Z,12.86
2022-12-31T22:23:48.128Z,12.77
2022-12-31T22:26:16.353Z,12.63
2022-12-31T22:28:44.554Z,12.62
2022-12-31T22:31:19.950Z,12.59
2022-12-31T22:33:46.950Z,12.70
2022-12-31T22:36:16.513Z,12.62
2022-12-31T22:38:43.678Z,12.61
2022-12-31T22:41:12.962Z,12.46
2022-12-31T22:43:42.778Z,12.40
2022-12-31T22:46:12.771Z,12.21
2022-12-31T22:48:39.904Z,12.38
2022-12-31T22:51:07.729Z,12.51
2022-12-31T22:53:34.284Z,12.42
2022-12-31T22:56:00.981Z,12.34
2022-12-31T22:58:27.602Z,12.34
2022-12-31T23:00:54.273Z,12.29
2022-12-31T23:03:20.974Z,12.35
2022-12-31T23:05:51.776Z,12.50
2022-12-31T23:08:23.570Z,12.48
2022-12-31T23:11:01.603Z,12.50
2022-12-31T23:14:00.140Z,12.50
2022-12-31T23:16:48.372Z,12.62
2022-12-31T23:19:33.919Z,12.65
2022-12-31T23:22:19.264Z,12.72
2022-12-31T23:24:45.807Z,12.79
2022-12-31T23:27:12.694Z,12.77
2022-12-31T23:29:46.090Z,12.76
2022-12-31T23:32:13.699Z,12.67
2022-12-31T23:34:40.200Z,12.55
2022-12-31T23:37:06.719Z,12.67
2022-12-31T23:39:33.213Z,12.65
2022-12-31T23:42:00.515Z,12.82
2022-12-31T23:44:28.185Z,12.73
2022-12-31T23:46:55.038Z,12.84
2022-12-31T23:49:22.132Z,13.00
2022-12-31T23:51:48.740Z,12.86
2022-12-31T23:54:15.827Z,12.75
2022-12-31T23:56:42.457Z,12.80
2022-12-31T23:59:10.402Z,12.81
